createdAt,value
2022-12-03T00:02:23.820Z,11.70
2022-12-03T00:04:51.570Z,10.13
2022-12-03T00:07:18.497Z,7.55
2022-12-03T00:09:45.235Z,13.00
2022-12-03T00:12:14.468Z,10.63
2022-12-03T00:14:44.622Z,10.77
2022-12-03T00:17:11.760Z,8.50
2022-12-03T00:19:38.419Z,9.75
2022-12-03T00:22:05.080Z,9.80
2022-12-03T00:24:34.519Z,9.20
2022-12-03T00:27:01.458Z,10.98
2022-12-03T00:29:28.571Z,11.45
2022-12-03T00:31:55.241Z,11.95
2022-12-03T00:34:22.402Z,9.70
2022-12-03T00:36:49.171Z,11.52
2022-12-03T00:39:15.971Z,9.18
2022-12-03T00:41:42.840Z,10.52
2022-12-03T00:44:10.363Z,9.25
2022-12-03T00:46:37.228Z,10.20
2022-12-03T00:49:03.971Z,9.15
2022-12-03T00:51:30.641Z,11.10
2022-12-03T00:53:57.259Z,10.20
2022-12-03T00:56:23.856Z,9.30
2022-12-03T00:58:50.842Z,9.73
2022-12-03T01:01:18.051Z,11.80
2022-12-03T01:03:44.793Z,11.25
2022-12-03T01:06:11.725Z,12.27
2022-12-03T01:08:38.414Z,15.48
2022-12-03T01:11:27.499Z,14.13
2022-12-03T01:13:54.195Z,11.18
2022-12-03T01:16:21.019Z,12.80
2022-12-03T01:18:47.967Z,14.38
2022-12-03T01:21:14.622Z,13.48
2022-12-03T01:23:41.262Z,13.70
2022-12-03T01:26:07.964Z,13.27
2022-12-03T01:28:34.629Z,15.93
2022-12-03T01:31:20.023Z,12.88
2022-12-03T01:33:48.372Z,11.70
2022-12-03T01:36:15.011Z,13.25
2022-12-03T01:38:41.620Z,12.52
2022-12-03T01:41:11.935Z,14.35
2022-12-03T01:43:46.569Z,17.58
2022-12-03T01:46:21.394Z,16.52
2022-12-03T01:48:50.590Z,15.55
2022-12-03T01:51:21.376Z,16.38
2022-12-03T01:53:48.894Z,25.38
2022-12-03T01:56:17.881Z,26.15
2022-12-03T01:58:46.393Z,17.00
2022-12-03T02:01:15.635Z,17.35
2022-12-03T02:03:43.246Z,15.05
2022-12-03T02:06:18.132Z,15.75
2022-12-03T02:08:45.866Z,14.27
2022-12-03T02:11:35.654Z,15.80
2022-12-03T02:14:05.385Z,17.88
2022-12-03T02:16:32.386Z,14.65
2022-12-03T02:18:59.157Z,16.15
2022-12-03T02:21:47.564Z,15.35
2022-12-03T02:24:20.085Z,24.17
2022-12-03T02:26:46.784Z,16.75
2022-12-03T02:29:13.487Z,16.40
2022-12-03T02:31:40.226Z,14.82
2022-12-03T02:34:07.719Z,15.48
2022-12-03T02:36:36.111Z,14.60
2022-12-03T02:39:03.525Z,15.57
2022-12-03T02:41:48.738Z,15.90
2022-12-03T02:44:15.522Z,15.82
2022-12-03T02:46:42.220Z,16.83
2022-12-03T02:49:08.960Z,16.17
2022-12-03T02:51:35.796Z,13.45
2022-12-03T02:54:03.802Z,16.33
2022-12-03T02:56:33.010Z,14.93
2022-12-03T02:59:03.245Z,14.65
2022-12-03T03:01:30.060Z,15.48
2022-12-03T03:03:58.159Z,18.67
2022-12-03T03:06:25.193Z,16.20
2022-12-03T03:08:52.385Z,17.35
2022-12-03T03:11:19.163Z,17.02
2022-12-03T03:13:46.279Z,19.30
2022-12-03T03:16:13.046Z,18.52
2022-12-03T03:18:40.379Z,19.40
2022-12-03T03:21:07.834Z,17.77
2022-12-03T03:23:34.583Z,20.33
2022-12-03T03:26:05.659Z,21.00
2022-12-03T03:28:36.031Z,17.30
2022-12-03T03:31:06.581Z,19.95
2022-12-03T03:33:34.240Z,21.05
2022-12-03T03:36:01.329Z,19.13
2022-12-03T03:38:29.930Z,21.67
2022-12-03T03:40:59.157Z,25.08
2022-12-03T03:43:26.227Z,21.67
2022-12-03T03:45:53.999Z,19.83
2022-12-03T03:48:21.220Z,24.10
2022-12-03T03:50:49.081Z,18.20
2022-12-03T03:53:17.557Z,21.58
2022-12-03T03:55:44.623Z,19.15
2022-12-03T03:58:11.458Z,21.35
2022-12-03T04:00:38.219Z,23.10
2022-12-03T04:03:05.562Z,20.25
2022-12-03T04:05:32.382Z,25.35
2022-12-03T04:07:59.263Z,21.52
2022-12-03T04:10:44.591Z,22.83
2022-12-03T04:13:11.232Z,23.65
2022-12-03T04:15:37.867Z,22.23
2022-12-03T04:18:23.090Z,24.33
2022-12-03T04:20:49.776Z,24.73
2022-12-03T04:23:16.420Z,26.70
2022-12-03T04:26:01.753Z,23.55
2022-12-03T04:28:47.115Z,25.48
2022-12-03T04:31:36.855Z,23.35
2022-12-03T04:36:48.333Z,28.02
2022-12-03T04:39:15.115Z,25.05
2022-12-03T04:41:41.866Z,24.17
2022-12-03T04:44:26.943Z,25.27
2022-12-03T04:46:53.580Z,24.48
2022-12-03T04:49:20.211Z,23.52
2022-12-03T04:51:46.975Z,25.42
2022-12-03T04:54:13.719Z,25.88
2022-12-03T04:56:40.490Z,26.45
2022-12-03T04:59:11.371Z,24.67
2022-12-03T05:01:42.644Z,26.77
2022-12-03T05:04:11.862Z,29.17
2022-12-03T05:06:42.376Z,25.25
2022-12-03T05:09:10.044Z,25.30
2022-12-03T05:11:37.193Z,28.33
2022-12-03T05:14:05.349Z,28.15
2022-12-03T05:16:32.424Z,28.17
2022-12-03T05:18:59.453Z,27.85
2022-12-03T05:21:26.316Z,25.65
2022-12-03T05:23:53.973Z,30.90
2022-12-03T05:26:20.719Z,26.95
2022-12-03T05:29:03.023Z,27.13
2022-12-03T05:31:29.916Z,29.15
2022-12-03T05:33:57.146Z,29.55
2022-12-03T05:36:25.579Z,26.70
2022-12-03T05:38:54.549Z,29.48
2022-12-03T05:41:40.107Z,31.87
2022-12-03T05:44:07.097Z,28.98
2022-12-03T05:46:33.912Z,28.15
2022-12-03T05:49:00.945Z,29.67
2022-12-03T05:51:28.457Z,29.08
2022-12-03T05:53:57.393Z,33.38
2022-12-03T05:56:27.333Z,32.03
2022-12-03T05:58:57.005Z,32.65
2022-12-03T06:01:26.968Z,29.42
2022-12-03T06:03:57.071Z,29.05
2022-12-03T06:06:23.737Z,34.35
2022-12-03T06:08:50.932Z,27.70
2022-12-03T06:11:18.360Z,29.17
2022-12-03T06:13:47.990Z,29.58
2022-12-03T06:16:14.679Z,31.02
2022-12-03T06:18:41.554Z,33.17
2022-12-03T06:21:08.313Z,33.40
2022-12-03T06:23:36.002Z,35.80
2022-12-03T06:26:03.316Z,30.33
2022-12-03T06:28:30.024Z,31.40
2022-12-03T06:31:03.028Z,32.17
2022-12-03T06:33:30.413Z,31.15
2022-12-03T06:35:57.395Z,32.70
2022-12-03T06:38:24.257Z,35.70
2022-12-03T06:40:54.274Z,33.25
2022-12-03T06:45:48.019Z,35.60
2022-12-03T06:48:15.020Z,33.50
2022-12-03T06:50:44.723Z,35.63
2022-12-03T06:55:47.502Z,35.42
2022-12-03T06:58:21.982Z,34.67
2022-12-03T07:00:52.497Z,38.72
2022-12-03T07:03:28.193Z,35.20
2022-12-03T07:09:16.700Z,36.80
2022-12-03T07:11:54.724Z,34.22
2022-12-03T07:14:29.715Z,41.33
2022-12-03T07:17:15.342Z,47.67
2022-12-03T07:20:29.260Z,35.53
2022-12-03T07:23:12.592Z,40.83
2022-12-03T07:25:49.045Z,50.80
2022-12-03T07:28:52.319Z,38.10
2022-12-03T07:31:22.798Z,35.63
2022-12-03T07:33:59.810Z,40.70
2022-12-03T07:39:15.702Z,40.88
2022-12-03T07:42:02.016Z,38.67
2022-12-03T07:44:42.728Z,30.95
2022-12-03T07:47:17.241Z,35.83
2022-12-03T07:49:47.314Z,35.45
2022-12-03T07:52:20.890Z,38.17
2022-12-03T07:54:57.892Z,33.20
2022-12-03T07:57:30.866Z,40.10
2022-12-03T07:59:57.984Z,39.95
2022-12-03T08:02:25.167Z,37.80
2022-12-03T08:04:52.681Z,36.63
2022-12-03T08:07:20.367Z,34.63
2022-12-03T08:09:47.537Z,35.55
2022-12-03T08:12:25.319Z,35.53
2022-12-03T08:14:53.175Z,31.65
2022-12-03T08:17:21.756Z,35.25
2022-12-03T08:19:50.028Z,35.83
2022-12-03T08:22:16.998Z,35.42
2022-12-03T08:24:44.110Z,35.50
2022-12-03T08:27:20.076Z,33.13
2022-12-03T08:29:49.904Z,39.13
2022-12-03T08:32:17.140Z,36.25
2022-12-03T08:34:47.288Z,30.20
2022-12-03T08:37:19.576Z,35.45
2022-12-03T08:39:50.552Z,32.53
2022-12-03T08:42:43.872Z,36.50
2022-12-03T08:45:29.673Z,32.42
2022-12-03T08:48:01.917Z,31.15
2022-12-03T08:50:34.386Z,34.38
2022-12-03T08:53:30.736Z,38.10
2022-12-03T08:56:02.689Z,32.28
2022-12-03T08:58:45.698Z,38.25
2022-12-03T09:01:35.210Z,37.03
2022-12-03T09:04:21.637Z,35.85
2022-12-03T09:06:50.494Z,37.65
2022-12-03T09:09:18.543Z,32.75
2022-12-03T09:11:46.466Z,42.65
2022-12-03T09:14:18.493Z,33.97
2022-12-03T09:16:46.490Z,29.92
2022-12-03T09:19:13.916Z,33.20
2022-12-03T09:21:44.587Z,36.35
2022-12-03T09:24:14.745Z,37.28
2022-12-03T09:26:42.075Z,33.80
2022-12-03T09:29:12.303Z,35.67
2022-12-03T09:31:40.665Z,37.28
2022-12-03T09:34:08.691Z,37.22
2022-12-03T09:36:35.925Z,38.15
2022-12-03T09:39:05.574Z,33.60
2022-12-03T09:41:34.559Z,31.20
2022-12-03T09:44:05.470Z,41.25
2022-12-03T09:46:36.178Z,34.30
2022-12-03T09:49:09.459Z,37.45
2022-12-03T09:51:40.125Z,35.95
2022-12-03T09:54:07.614Z,32.70
2022-12-03T09:56:38.555Z,36.67
2022-12-03T09:59:21.561Z,33.53
2022-12-03T10:01:53.230Z,28.55
2022-12-03T10:04:20.580Z,24.33
2022-12-03T10:06:50.904Z,32.38
2022-12-03T10:09:24.573Z,31.33
2022-12-03T10:11:56.326Z,33.97
2022-12-03T10:14:23.715Z,35.22
2022-12-03T10:16:51.371Z,34.72
2022-12-03T10:19:39.732Z,32.45
2022-12-03T10:22:09.406Z,30.77
2022-12-03T10:24:45.723Z,32.40
2022-12-03T10:27:30.579Z,32.88
2022-12-03T10:29:59.694Z,32.65
2022-12-03T10:32:41.521Z,30.02
2022-12-03T10:35:20.804Z,31.70
2022-12-03T10:38:08.054Z,31.35
2022-12-03T10:40:37.556Z,36.85
2022-12-03T10:43:22.963Z,31.23
2022-12-03T10:46:12.793Z,28.10
2022-12-03T10:48:39.643Z,32.55
2022-12-03T10:51:15.514Z,31.58
2022-12-03T10:53:42.445Z,27.52
2022-12-03T10:56:16.451Z,28.75
2022-12-03T10:58:43.085Z,35.55
2022-12-03T11:01:22.342Z,30.23
2022-12-03T11:03:49.863Z,28.67
2022-12-03T11:06:19.729Z,27.60
2022-12-03T11:08:57.519Z,32.03
2022-12-03T11:11:27.813Z,26.52
2022-12-03T11:13:59.362Z,27.00
2022-12-03T11:16:41.065Z,40.25
2022-12-03T11:19:20.627Z,31.08
2022-12-03T11:22:05.846Z,32.65
2022-12-03T11:24:37.596Z,29.70
2022-12-03T11:27:04.136Z,29.42
2022-12-03T11:29:59.100Z,28.77
2022-12-03T11:32:38.309Z,28.20
2022-12-03T11:35:16.294Z,27.63
2022-12-03T11:37:45.776Z,27.38
2022-12-03T11:40:18.777Z,28.90
2022-12-03T11:42:47.350Z,36.17
2022-12-03T11:45:27.285Z,28.42
2022-12-03T11:48:06.102Z,26.02
2022-12-03T11:50:39.660Z,28.40
2022-12-03T11:53:22.436Z,27.27
2022-12-03T11:56:06.726Z,29.65
2022-12-03T11:58:35.943Z,30.25
2022-12-03T12:01:04.963Z,29.60
2022-12-03T12:03:37.111Z,27.15
2022-12-03T12:06:06.124Z,31.33
2022-12-03T12:08:34.975Z,31.83
2022-12-03T12:11:15.716Z,29.88
2022-12-03T12:13:45.490Z,31.75
2022-12-03T12:18:54.848Z,29.80
2022-12-03T12:21:48.106Z,32.92
2022-12-03T12:24:30.454Z,30.08
2022-12-03T12:27:02.579Z,36.80
2022-12-03T12:29:32.064Z,40.00
2022-12-03T12:32:17.873Z,33.08
2022-12-03T12:34:48.115Z,31.70
2022-12-03T12:37:21.966Z,34.03
2022-12-03T12:39:52.977Z,33.33
2022-12-03T12:42:34.480Z,38.50
2022-12-03T12:45:12.495Z,33.38
2022-12-03T12:47:46.490Z,32.17
2022-12-03T12:50:14.333Z,35.58
2022-12-03T12:53:08.312Z,36.33
2022-12-03T12:55:35.676Z,39.05
2022-12-03T12:58:07.837Z,33.53
2022-12-03T13:00:46.355Z,39.30
2022-12-03T13:03:17.245Z,38.08
2022-12-03T13:05:48.329Z,36.50
2022-12-03T13:08:31.671Z,32.25
2022-12-03T13:11:00.698Z,36.92
2022-12-03T13:13:32.490Z,32.80
2022-12-03T13:16:02.153Z,38.30
2022-12-03T13:18:44.589Z,35.55
2022-12-03T13:21:44.419Z,38.22
2022-12-03T13:24:27.172Z,38.58
2022-12-03T13:26:58.127Z,36.42
2022-12-03T13:29:27.067Z,36.17
2022-12-03T13:32:00.518Z,39.83
2022-12-03T13:34:32.385Z,42.20
2022-12-03T13:37:08.402Z,37.72
2022-12-03T13:39:38.303Z,34.40
2022-12-03T13:42:27.723Z,32.60
2022-12-03T13:44:58.357Z,37.67
2022-12-03T13:47:28.444Z,40.45
2022-12-03T13:50:07.526Z,38.75
2022-12-03T13:52:35.605Z,40.42
2022-12-03T13:55:07.533Z,40.63
2022-12-03T13:57:35.247Z,40.42
2022-12-03T14:00:01.898Z,35.22
2022-12-03T14:02:39.120Z,38.67
2022-12-03T14:05:07.836Z,43.50
2022-12-03T14:07:35.076Z,40.95
2022-12-03T14:10:09.362Z,36.47
2022-12-03T14:12:39.362Z,37.22
2022-12-03T14:15:06.881Z,42.20
2022-12-03T14:17:34.371Z,36.42
2022-12-03T14:20:01.960Z,36.95
2022-12-03T14:22:31.963Z,40.22
2022-12-03T14:24:58.932Z,41.10
2022-12-03T14:27:28.192Z,39.30
2022-12-03T14:29:56.794Z,41.60
2022-12-03T14:32:26.812Z,36.15
2022-12-03T14:34:56.167Z,37.70
2022-12-03T14:37:23.453Z,35.47
2022-12-03T14:39:50.325Z,35.20
2022-12-03T14:42:18.522Z,34.90
2022-12-03T14:44:47.572Z,33.78
2022-12-03T14:47:16.168Z,37.70
2022-12-03T14:49:43.048Z,36.47
2022-12-03T14:52:12.481Z,32.13
2022-12-03T14:59:40.773Z,34.10
2022-12-03T15:02:07.961Z,35.63
2022-12-03T15:04:37.283Z,32.20
2022-12-03T15:07:15.573Z,28.70
2022-12-03T15:09:42.228Z,34.10
2022-12-03T15:12:11.851Z,38.30
2022-12-03T15:14:39.244Z,37.65
2022-12-03T15:17:05.961Z,30.27
2022-12-03T15:19:32.783Z,31.92
2022-12-03T15:22:02.076Z,30.42
2022-12-03T15:24:32.275Z,34.92
2022-12-03T15:27:00.385Z,34.00
2022-12-03T15:29:27.320Z,36.78
2022-12-03T15:32:02.059Z,40.45
2022-12-03T15:34:31.440Z,35.20
2022-12-03T15:36:58.106Z,30.50
2022-12-03T15:39:24.972Z,33.78
2022-12-03T15:41:51.898Z,36.40
2022-12-03T15:44:18.611Z,35.30
2022-12-03T15:46:49.784Z,37.47
2022-12-03T15:49:16.819Z,37.10
2022-12-03T15:51:46.420Z,37.08
2022-12-03T15:54:13.267Z,31.30
2022-12-03T15:56:43.193Z,33.63
2022-12-03T15:59:11.075Z,31.77
2022-12-03T16:01:37.855Z,31.10
2022-12-03T16:04:05.371Z,32.72
2022-12-03T16:06:33.546Z,32.83
2022-12-03T16:09:00.194Z,34.58
2022-12-03T16:11:26.869Z,36.60
2022-12-03T16:13:54.229Z,34.95
2022-12-03T16:16:24.277Z,35.70
2022-12-03T16:18:54.058Z,36.05
2022-12-03T16:21:26.475Z,36.97
2022-12-03T16:23:54.299Z,37.15
2022-12-03T16:26:21.794Z,32.70
2022-12-03T16:28:48.840Z,32.63
2022-12-03T16:31:16.164Z,37.70
2022-12-03T16:33:43.149Z,32.05
2022-12-03T16:36:12.754Z,36.67
2022-12-03T16:38:39.498Z,34.60
2022-12-03T16:41:06.619Z,36.83
2022-12-03T16:43:51.203Z,35.47
2022-12-03T16:46:18.939Z,33.40
2022-12-03T16:48:48.655Z,36.25
2022-12-03T16:51:19.897Z,35.47
2022-12-03T16:53:49.507Z,32.05
2022-12-03T16:56:16.746Z,35.05
2022-12-03T16:58:45.019Z,38.95
2022-12-03T17:01:12.604Z,32.90
2022-12-03T17:03:39.461Z,35.10
2022-12-03T17:06:06.467Z,40.47
2022-12-03T17:08:33.724Z,35.85
2022-12-03T17:11:02.144Z,37.03
2022-12-03T17:13:31.428Z,33.95
2022-12-03T17:15:58.904Z,34.60
2022-12-03T17:18:28.881Z,36.03
2022-12-03T17:20:55.706Z,33.30
2022-12-03T17:23:23.066Z,36.75
2022-12-03T17:25:50.270Z,33.88
2022-12-03T17:28:17.359Z,41.47
2022-12-03T17:30:46.565Z,33.00
2022-12-03T17:33:13.503Z,36.22
2022-12-03T17:35:48.411Z,33.20
2022-12-03T17:38:15.365Z,38.25
2022-12-03T17:40:44.904Z,32.38
2022-12-03T17:43:11.772Z,37.83
2022-12-03T17:45:38.662Z,35.03
2022-12-03T17:48:09.009Z,34.05
2022-12-03T17:50:38.942Z,51.80
2022-12-03T17:53:10.297Z,33.92
2022-12-03T17:55:44.634Z,29.40
2022-12-03T17:58:12.386Z,30.95
2022-12-03T18:00:39.487Z,33.53
2022-12-03T18:03:06.750Z,28.90
2022-12-03T18:05:34.154Z,34.85
2022-12-03T18:08:01.556Z,35.88
2022-12-03T18:10:31.724Z,29.73
2022-12-03T18:13:02.379Z,33.00
2022-12-03T18:15:32.714Z,32.28
2022-12-03T18:18:00.719Z,30.60
2022-12-03T18:20:29.737Z,31.38
2022-12-03T18:23:01.490Z,30.65
2022-12-03T18:25:31.060Z,35.33
2022-12-03T18:28:05.551Z,31.95
2022-12-03T18:30:32.478Z,32.30
2022-12-03T18:32:59.210Z,31.77
2022-12-03T18:35:26.339Z,32.10
2022-12-03T18:37:57.567Z,27.85
2022-12-03T18:40:29.115Z,25.75
2022-12-03T18:43:00.169Z,31.40
2022-12-03T18:45:29.020Z,32.00
2022-12-03T18:47:55.869Z,32.40
2022-12-03T18:50:25.846Z,26.80
2022-12-03T18:52:55.713Z,29.65
2022-12-03T18:59:29.158Z,32.58
2022-12-03T19:02:03.882Z,28.17
2022-12-03T19:04:30.807Z,33.15
2022-12-03T19:07:00.417Z,27.92
2022-12-03T19:09:30.583Z,31.63
2022-12-03T19:11:57.710Z,30.85
2022-12-03T19:14:24.724Z,30.65
2022-12-03T19:16:52.201Z,31.17
2022-12-03T19:19:22.309Z,29.10
2022-12-03T19:21:51.423Z,29.27
2022-12-03T19:24:25.676Z,25.70
2022-12-03T19:26:55.368Z,33.85
2022-12-03T19:29:27.133Z,31.70
2022-12-03T19:31:54.597Z,32.33
2022-12-03T19:34:21.408Z,30.00
2022-12-03T19:36:50.601Z,30.33
2022-12-03T19:39:19.168Z,23.90
2022-12-03T19:41:56.490Z,30.55
2022-12-03T19:44:33.933Z,34.30
2022-12-03T19:47:05.112Z,33.15
2022-12-03T19:49:33.983Z,39.15
2022-12-03T19:52:01.289Z,31.30
2022-12-03T19:54:49.536Z,30.58
2022-12-03T19:57:23.323Z,28.80
2022-12-03T19:59:51.489Z,28.60
2022-12-03T20:02:18.774Z,30.70
2022-12-03T20:04:48.423Z,25.63
2022-12-03T20:07:21.201Z,32.13
2022-12-03T20:09:50.395Z,27.75
2022-12-03T20:12:20.624Z,28.58
2022-12-03T20:14:47.501Z,32.55
2022-12-03T20:17:17.706Z,31.02
2022-12-03T20:19:47.289Z,36.33
2022-12-03T20:22:13.953Z,32.38
2022-12-03T20:24:40.790Z,29.23
2022-12-03T20:27:09.988Z,29.08
2022-12-03T20:29:40.209Z,30.85
2022-12-03T20:32:07.315Z,33.83
2022-12-03T20:34:41.644Z,30.38
2022-12-03T20:37:08.388Z,29.95
2022-12-03T20:39:38.308Z,29.60
2022-12-03T20:42:07.556Z,32.70
2022-12-03T20:44:34.597Z,34.63
2022-12-03T20:47:07.275Z,32.97
2022-12-03T20:49:35.113Z,28.75
2022-12-03T20:52:04.507Z,32.10
2022-12-03T20:54:32.937Z,34.53
2022-12-03T20:56:59.663Z,29.10
2022-12-03T20:59:28.937Z,28.08
2022-12-03T21:01:59.068Z,31.30
2022-12-03T21:04:27.425Z,33.72
2022-12-03T21:06:56.125Z,32.97
2022-12-03T21:09:23.268Z,34.05
2022-12-03T21:11:50.267Z,31.83
2022-12-03T21:14:17.010Z,30.80
2022-12-03T21:17:07.866Z,29.48
2022-12-03T21:19:35.338Z,35.88
2022-12-03T21:22:03.723Z,29.17
2022-12-03T21:24:30.827Z,34.33
2022-12-03T21:27:02.558Z,34.08
2022-12-03T21:29:34.924Z,35.25
2022-12-03T21:32:02.184Z,31.23
2022-12-03T21:34:35.643Z,35.28
2022-12-03T21:37:05.485Z,29.00
2022-12-03T21:39:32.364Z,27.33
2022-12-03T21:42:34.367Z,27.30
2022-12-03T21:44:45.807Z,28.88
2022-12-03T21:47:14.349Z,28.65
2022-12-03T21:49:42.285Z,28.80
2022-12-03T21:52:11.556Z,26.65
2022-12-03T21:54:41.523Z,26.17
2022-12-03T21:57:08.293Z,25.50
2022-12-03T21:59:34.989Z,26.40
2022-12-03T22:02:04.543Z,25.63
2022-12-03T22:04:31.313Z,25.42
2022-12-03T22:07:00.286Z,32.70
2022-12-03T22:09:28.941Z,27.25
2022-12-03T22:11:57.825Z,24.60
2022-12-03T22:14:25.277Z,18.80
2022-12-03T22:16:52.743Z,26.58
2022-12-03T22:19:25.772Z,29.10
2022-12-03T22:21:52.734Z,29.30
2022-12-03T22:24:25.111Z,25.17
2022-12-03T22:26:59.072Z,23.17
2022-12-03T22:29:33.082Z,21.23
2022-12-03T22:32:14.217Z,23.33
2022-12-03T22:34:42.323Z,27.52
2022-12-03T22:37:09.338Z,23.70
2022-12-03T22:39:36.976Z,22.83
2022-12-03T22:42:07.350Z,20.60
2022-12-03T22:44:36.704Z,22.58
2022-12-03T22:47:04.441Z,24.13
2022-12-03T22:49:31.125Z,21.20
2022-12-03T22:51:57.885Z,19.30
2022-12-03T22:54:27.700Z,21.65
2022-12-03T22:57:18.751Z,21.55
2022-12-03T22:59:45.494Z,19.15
2022-12-03T23:02:17.979Z,26.85
2022-12-03T23:04:47.409Z,18.35
2022-12-03T23:07:15.870Z,20.35
2022-12-03T23:09:43.266Z,19.20
2022-12-03T23:12:10.419Z,18.52
2022-12-03T23:14:37.346Z,17.80
2022-12-03T23:17:04.919Z,19.67
2022-12-03T23:19:36.798Z,18.80
2022-12-03T23:22:06.774Z,20.70
2022-12-03T23:24:36.691Z,14.60
2022-12-03T23:27:06.097Z,18.33
2022-12-03T23:29:34.658Z,13.38
2022-12-03T23:32:04.075Z,18.15
2022-12-03T23:34:30.948Z,19.52
2022-12-03T23:36:58.089Z,19.63
2022-12-03T23:39:24.660Z,16.55
2022-12-03T23:41:52.288Z,18.95
2022-12-03T23:44:21.512Z,17.25
2022-12-03T23:46:48.322Z,17.27
2022-12-03T23:49:17.425Z,15.68
2022-12-03T23:51:45.435Z,17.42
2022-12-03T23:54:15.382Z,17.05
2022-12-03T23:56:42.115Z,17.92
2022-12-03T23:59:11.908Z,15.98
